createdAt,value
2022-08-02T00:00:00.269Z,7.60
2022-08-02T00:02:47.321Z,7.10
2022-08-02T00:05:21.449Z,8.07
2022-08-02T00:08:03.259Z,9.98
2022-08-02T00:10:50.178Z,9.38
2022-08-02T00:16:18.281Z,11.07
2022-08-02T00:18:59.089Z,10.60
2022-08-02T00:21:39.727Z,11.32
2022-08-02T00:24:29.163Z,10.20
2022-08-02T00:27:13.207Z,10.07
2022-08-02T00:29:55.470Z,10.15
2022-08-02T00:32:34.200Z,9.32
2022-08-02T00:35:18.434Z,9.88
2022-08-02T00:37:55.032Z,10.55
2022-08-02T00:40:41.704Z,10.35
2022-08-02T00:43:21.306Z,10.55
2022-08-02T00:46:02.047Z,11.93
2022-08-02T00:48:50.759Z,12.02
2022-08-02T00:51:28.931Z,10.15
2022-08-02T00:54:07.366Z,11.02
2022-08-02T00:56:50.859Z,11.75
2022-08-02T00:59:32.401Z,10.57
2022-08-02T01:02:05.736Z,11.13
2022-08-02T01:04:47.968Z,10.88
2022-08-02T01:07:16.002Z,11.65
2022-08-02T01:09:53.555Z,11.80
2022-08-02T01:12:26.111Z,10.00
2022-08-02T01:15:10.561Z,10.27
2022-08-02T01:18:02.914Z,9.80
2022-08-02T01:20:54.805Z,11.10
2022-08-02T01:23:32.868Z,10.43
2022-08-02T01:26:27.658Z,11.05
2022-08-02T01:29:25.078Z,10.55
2022-08-02T01:32:08.689Z,10.80
2022-08-02T01:34:53.246Z,10.90
2022-08-02T01:37:44.688Z,10.50
2022-08-02T01:40:19.114Z,11.60
2022-08-02T01:42:58.801Z,10.68
2022-08-02T01:45:29.771Z,9.63
2022-08-02T01:50:39.655Z,11.00
2022-08-02T01:53:24.960Z,10.68
2022-08-02T01:55:57.507Z,10.60
2022-08-02T01:58:46.810Z,10.45
2022-08-02T02:01:27.258Z,10.90
2022-08-02T02:03:54.535Z,10.05
2022-08-02T02:06:24.876Z,11.07
2022-08-02T02:09:09.488Z,10.13
2022-08-02T02:12:05.885Z,10.38
2022-08-02T02:14:52.060Z,10.10
2022-08-02T02:17:52.906Z,11.02
2022-08-02T02:20:43.509Z,10.30
2022-08-02T02:23:11.592Z,9.95
2022-08-02T02:25:50.168Z,10.82
2022-08-02T02:28:30.515Z,11.30
2022-08-02T02:31:08.141Z,11.05
2022-08-02T02:33:48.965Z,11.32
2022-08-02T02:36:35.466Z,11.90
2022-08-02T02:39:19.031Z,12.20
2022-08-02T02:41:50.129Z,12.45
2022-08-02T02:44:28.550Z,13.18
2022-08-02T02:47:19.763Z,12.93
2022-08-02T02:49:58.917Z,12.55
2022-08-02T02:52:43.401Z,11.15
2022-08-02T02:55:17.751Z,11.70
2022-08-02T02:57:56.627Z,11.52
2022-08-02T03:00:48.377Z,10.98
2022-08-02T03:03:24.136Z,12.10
2022-08-02T03:06:14.885Z,11.60
2022-08-02T03:08:48.756Z,11.60
2022-08-02T03:11:17.334Z,11.63
2022-08-02T03:14:08.412Z,10.57
2022-08-02T03:16:49.299Z,11.80
2022-08-02T03:19:33.487Z,11.00
2022-08-02T03:22:16.898Z,11.63
2022-08-02T03:24:52.457Z,11.13
2022-08-02T03:27:25.395Z,12.95
2022-08-02T03:30:05.620Z,11.30
2022-08-02T03:32:47.363Z,10.45
2022-08-02T03:35:31.318Z,10.63
2022-08-02T03:38:26.552Z,13.50
2022-08-02T03:41:00.757Z,13.50
2022-08-02T03:43:39.234Z,12.65
2022-08-02T03:46:18.902Z,14.65
2022-08-02T03:48:52.578Z,11.77
2022-08-02T03:53:56.814Z,9.75
2022-08-02T03:56:38.128Z,9.45
2022-08-02T03:59:10.484Z,9.38
2022-08-02T04:01:51.559Z,10.30
2022-08-02T04:04:26.503Z,11.45
2022-08-02T04:07:07.601Z,12.65
2022-08-02T04:12:34.884Z,12.07
2022-08-02T04:15:10.878Z,13.57
2022-08-02T04:17:46.125Z,14.30
2022-08-02T04:20:21.318Z,13.13
2022-08-02T04:23:17.776Z,14.20
2022-08-02T04:25:48.417Z,12.50
2022-08-02T04:28:29.119Z,11.45
2022-08-02T04:31:05.590Z,12.05
2022-08-02T04:33:42.593Z,11.50
2022-08-02T04:36:31.618Z,11.20
2022-08-02T04:39:08.115Z,11.18
2022-08-02T04:41:50.161Z,10.93
2022-08-02T04:44:33.505Z,11.20
2022-08-02T04:47:06.862Z,11.82
2022-08-02T04:49:42.161Z,12.60
2022-08-02T04:52:09.384Z,10.60
2022-08-02T04:54:48.206Z,12.52
2022-08-02T04:57:34.002Z,10.77
2022-08-02T05:00:28.433Z,11.85
2022-08-02T05:02:59.607Z,9.93
2022-08-02T05:05:44.085Z,8.80
2022-08-02T05:08:25.162Z,10.35
2022-08-02T05:11:20.230Z,11.23
2022-08-02T05:14:04.431Z,6.75
2022-08-02T05:16:32.249Z,4.22
2022-08-02T05:19:19.107Z,4.90
2022-08-02T05:22:03.005Z,5.32
2022-08-02T05:24:35.726Z,5.20
2022-08-02T05:27:22.600Z,4.30
2022-08-02T05:29:57.169Z,4.35
2022-08-02T05:32:32.718Z,4.80
2022-08-02T05:35:03.383Z,4.50
2022-08-02T05:37:36.104Z,4.28
2022-08-02T05:40:13.160Z,3.65
2022-08-02T05:42:44.001Z,3.75
2022-08-02T05:45:11.789Z,3.67
2022-08-02T05:47:48.081Z,3.50
2022-08-02T05:50:34.468Z,3.78
2022-08-02T05:53:30.079Z,4.00
2022-08-02T05:56:25.382Z,4.00
2022-08-02T05:59:12.916Z,3.28
2022-08-02T06:01:54.458Z,3.17
2022-08-02T06:04:47.456Z,3.42
2022-08-02T06:07:33.962Z,2.85
2022-08-02T06:10:26.906Z,3.38
2022-08-02T06:13:14.362Z,2.92
2022-08-02T06:16:02.724Z,2.95
2022-08-02T06:18:48.363Z,2.85
2022-08-02T06:22:34.141Z,2.65
2022-08-02T06:24:19.648Z,2.70
2022-08-02T06:26:57.888Z,2.80
2022-08-02T06:29:39.096Z,2.30
2022-08-02T06:32:17.757Z,2.53
2022-08-02T06:34:45.011Z,1.98
2022-08-02T06:37:25.610Z,2.28
2022-08-02T06:40:01.803Z,2.30
2022-08-02T06:42:51.749Z,2.50
2022-08-02T06:45:24.475Z,2.28
2022-08-02T06:48:11.269Z,2.30
2022-08-02T06:50:48.898Z,2.20
2022-08-02T06:53:18.804Z,2.20
2022-08-02T06:56:02.039Z,2.03
2022-08-02T06:58:31.574Z,2.30
2022-08-02T07:01:21.466Z,2.10
2022-08-02T07:03:53.296Z,2.10
2022-08-02T07:06:31.993Z,2.38
2022-08-02T07:09:25.077Z,2.10
2022-08-02T07:12:00.361Z,1.73
2022-08-02T07:14:44.152Z,2.00
2022-08-02T07:17:37.228Z,1.80
2022-08-02T07:20:13.711Z,2.20
2022-08-02T07:22:41.905Z,2.10
2022-08-02T07:25:24.179Z,2.05
2022-08-02T07:30:40.566Z,2.00
2022-08-02T07:33:07.663Z,2.17
2022-08-02T07:35:47.719Z,1.90
2022-08-02T07:38:30.887Z,1.95
2022-08-02T07:41:09.869Z,2.00
2022-08-02T07:43:48.835Z,1.98
2022-08-02T07:46:21.784Z,1.55
2022-08-02T07:49:10.362Z,1.50
2022-08-02T07:52:03.648Z,1.73
2022-08-02T07:54:39.012Z,1.70
2022-08-02T07:57:15.104Z,1.90
2022-08-02T07:59:52.609Z,1.77
2022-08-02T08:02:42.842Z,2.00
2022-08-02T08:05:32.293Z,1.67
2022-08-02T08:08:21.404Z,1.90
2022-08-02T08:11:06.492Z,1.60
2022-08-02T08:13:51.131Z,1.38
2022-08-02T08:16:21.644Z,1.60
2022-08-02T08:18:51.395Z,1.70
2022-08-02T08:21:35.204Z,1.45
2022-08-02T08:24:10.723Z,1.40
2022-08-02T08:26:51.311Z,1.40
2022-08-02T08:29:36.331Z,1.95
2022-08-02T08:32:15.852Z,1.75
2022-08-02T08:34:48.584Z,1.92
2022-08-02T08:37:23.953Z,1.80
2022-08-02T08:39:57.106Z,1.70
2022-08-02T08:42:42.210Z,1.70
2022-08-02T08:45:29.921Z,1.45
2022-08-02T08:48:31.948Z,1.67
2022-08-02T08:51:22.905Z,1.80
2022-08-02T08:54:10.864Z,1.45
2022-08-02T08:56:58.334Z,1.67
2022-08-02T08:59:48.918Z,1.95
2022-08-02T09:02:32.498Z,2.15
2022-08-02T09:05:14.578Z,1.85
2022-08-02T09:08:03.458Z,2.03
2022-08-02T09:10:48.488Z,1.98
2022-08-02T09:13:45.649Z,1.80
2022-08-02T09:16:50.413Z,1.40
2022-08-02T09:19:31.874Z,1.50
2022-08-02T09:22:16.257Z,1.98
2022-08-02T09:25:12.076Z,2.08
2022-08-02T09:27:56.570Z,1.52
2022-08-02T09:30:37.891Z,2.03
2022-08-02T09:33:25.236Z,2.17
2022-08-02T09:36:13.256Z,1.65
2022-08-02T09:39:32.536Z,2.42
2022-08-02T09:42:12.872Z,1.88
2022-08-02T09:45:13.208Z,1.65
2022-08-02T09:48:01.146Z,1.92
2022-08-02T09:50:33.266Z,2.05
2022-08-02T09:53:21.414Z,1.80
2022-08-02T09:56:00.205Z,1.83
2022-08-02T09:58:52.286Z,1.85
2022-08-02T10:01:40.014Z,1.80
2022-08-02T10:04:53.035Z,1.77
2022-08-02T10:07:31.801Z,1.65
2022-08-02T10:10:15.157Z,1.63
2022-08-02T10:13:00.234Z,1.80
2022-08-02T10:15:50.524Z,1.83
2022-08-02T10:18:44.320Z,1.88
2022-08-02T10:21:29.758Z,1.65
2022-08-02T10:24:24.817Z,1.40
2022-08-02T10:27:00.784Z,1.30
2022-08-02T10:29:50.455Z,1.20
2022-08-02T10:32:46.585Z,1.50
2022-08-02T10:35:36.042Z,1.65
2022-08-02T10:38:20.138Z,1.33
2022-08-02T10:40:57.757Z,1.60
2022-08-02T10:43:42.270Z,1.50
2022-08-02T10:46:46.215Z,1.40
2022-08-02T10:49:44.503Z,1.45
2022-08-02T10:52:23.675Z,1.45
2022-08-02T10:55:13.446Z,1.42
2022-08-02T10:58:26.116Z,1.55
2022-08-02T11:01:26.367Z,1.30
2022-08-02T11:04:10.377Z,1.90
2022-08-02T11:07:15.273Z,1.58
2022-08-02T11:10:08.705Z,1.67
2022-08-02T11:13:17.281Z,1.60
2022-08-02T11:16:11.878Z,1.40
2022-08-02T11:18:50.193Z,1.10
2022-08-02T11:21:28.410Z,1.27
2022-08-02T11:24:02.059Z,1.45
2022-08-02T11:26:35.277Z,1.30
2022-08-02T11:29:16.893Z,1.30
2022-08-02T11:31:58.290Z,1.20
2022-08-02T11:34:38.478Z,1.60
2022-08-02T11:37:08.261Z,1.33
2022-08-02T11:39:58.960Z,1.50
2022-08-02T11:42:44.779Z,1.42
2022-08-02T11:45:32.851Z,1.40
2022-08-02T11:48:09.430Z,1.60
2022-08-02T11:50:52.764Z,1.90
2022-08-02T11:53:57.738Z,1.27
2022-08-02T11:56:36.215Z,1.88
2022-08-02T11:59:17.601Z,1.52
2022-08-02T12:01:59.524Z,1.30
2022-08-02T12:04:34.834Z,1.58
2022-08-02T12:07:08.676Z,1.70
2022-08-02T12:09:53.329Z,1.80
2022-08-02T12:13:05.750Z,1.30
2022-08-02T12:15:50.381Z,1.83
2022-08-02T12:18:45.835Z,1.45
2022-08-02T12:21:35.781Z,1.58
2022-08-02T12:24:15.257Z,1.55
2022-08-02T12:26:53.536Z,1.95
2022-08-02T12:29:58.985Z,1.65
2022-08-02T12:32:35.266Z,1.67
2022-08-02T12:35:26.313Z,1.73
2022-08-02T12:38:13.190Z,1.80
2022-08-02T12:40:46.009Z,1.60
2022-08-02T12:43:27.088Z,1.50
2022-08-02T12:46:02.309Z,1.50
2022-08-02T12:49:08.391Z,1.40
2022-08-02T12:52:00.072Z,1.45
2022-08-02T12:54:49.244Z,1.08
2022-08-02T12:57:25.330Z,1.30
2022-08-02T13:00:03.340Z,1.75
2022-08-02T13:02:44.099Z,1.38
2022-08-02T13:05:21.440Z,1.42
2022-08-02T13:10:37.223Z,1.30
2022-08-02T13:13:16.055Z,1.20
2022-08-02T13:15:54.799Z,0.90
2022-08-02T13:18:37.323Z,1.30
2022-08-02T13:21:26.875Z,1.33
2022-08-02T13:24:39.434Z,1.08
2022-08-02T13:27:21.974Z,1.15
2022-08-02T13:30:05.785Z,1.10
2022-08-02T13:32:55.794Z,1.13
2022-08-02T13:35:38.592Z,1.00
2022-08-02T13:38:27.841Z,1.30
2022-08-02T13:41:14.739Z,1.30
2022-08-02T13:43:59.490Z,1.20
2022-08-02T13:46:47.862Z,1.25
2022-08-02T13:49:49.722Z,1.40
2022-08-02T13:52:22.273Z,1.20
2022-08-02T13:55:12.272Z,1.25
2022-08-02T13:57:54.377Z,1.17
2022-08-02T14:00:34.600Z,1.08
2022-08-02T14:03:19.105Z,1.00
2022-08-02T14:08:55.791Z,1.00
2022-08-02T14:11:33.448Z,0.93
2022-08-02T14:14:21.324Z,0.88
2022-08-02T14:16:58.825Z,1.10
2022-08-02T14:19:42.260Z,1.02
2022-08-02T14:22:31.015Z,0.70
2022-08-02T14:25:09.702Z,0.90
2022-08-02T14:27:48.689Z,0.90
2022-08-02T14:30:23.973Z,0.88
2022-08-02T14:33:04.686Z,0.93
2022-08-02T14:35:42.130Z,1.13
2022-08-02T14:38:28.293Z,0.80
2022-08-02T14:41:07.540Z,0.85
2022-08-02T14:44:03.980Z,0.70
2022-08-02T14:46:47.221Z,0.77
2022-08-02T14:49:32.559Z,0.80
2022-08-02T14:52:16.367Z,0.70
2022-08-02T14:55:00.222Z,0.60
2022-08-02T14:57:42.475Z,0.95
2022-08-02T15:00:25.193Z,0.75
2022-08-02T15:03:09.283Z,0.60
2022-08-02T15:05:55.802Z,0.60
2022-08-02T15:08:36.364Z,0.73
2022-08-02T15:11:09.472Z,0.68
2022-08-02T15:13:53.063Z,0.60
2022-08-02T15:16:54.207Z,0.57
2022-08-02T15:19:57.473Z,0.57
2022-08-02T15:25:24.826Z,0.50
2022-08-02T15:27:59.189Z,0.80
2022-08-02T15:30:34.358Z,0.70
2022-08-02T15:33:15.972Z,0.68
2022-08-02T15:35:51.142Z,0.57
2022-08-02T15:38:31.094Z,0.60
2022-08-02T15:41:08.788Z,0.60
2022-08-02T15:44:00.239Z,0.60
2022-08-02T15:46:45.304Z,0.60
2022-08-02T15:49:23.833Z,0.60
2022-08-02T15:52:03.269Z,0.50
2022-08-02T15:54:38.721Z,0.50
2022-08-02T15:57:09.278Z,0.60
2022-08-02T15:59:47.648Z,0.45
2022-08-02T16:02:23.211Z,0.60
2022-08-02T16:05:01.297Z,0.60
2022-08-02T16:07:31.092Z,0.40
2022-08-02T16:10:11.651Z,0.57
2022-08-02T16:12:50.242Z,0.88
2022-08-02T16:15:28.756Z,0.52
2022-08-02T16:18:04.297Z,0.60
2022-08-02T16:20:48.439Z,0.70
2022-08-02T16:23:19.505Z,0.70
2022-08-02T16:26:17.856Z,0.68
2022-08-02T16:28:50.523Z,0.68
2022-08-02T16:31:20.393Z,0.50
2022-08-02T16:33:59.234Z,0.50
2022-08-02T16:36:40.889Z,0.60
2022-08-02T16:39:19.231Z,0.73
2022-08-02T16:41:55.022Z,0.30
2022-08-02T16:44:42.641Z,0.50
2022-08-02T16:47:43.749Z,0.50
2022-08-02T16:50:38.770Z,0.60
2022-08-02T16:53:36.723Z,0.45
2022-08-02T16:56:14.279Z,0.70
2022-08-02T16:58:49.501Z,0.77
2022-08-02T17:02:03.335Z,0.45
2022-08-02T17:04:29.258Z,0.80
2022-08-02T17:07:11.214Z,0.45
2022-08-02T17:10:18.752Z,0.90
2022-08-02T17:12:57.629Z,0.60
2022-08-02T17:16:01.155Z,0.60
2022-08-02T17:18:49.241Z,0.70
2022-08-02T17:21:19.175Z,0.60
2022-08-02T17:24:05.358Z,0.40
2022-08-02T17:27:04.332Z,0.50
2022-08-02T17:29:43.283Z,0.70
2022-08-02T17:32:24.092Z,0.70
2022-08-02T17:35:04.036Z,0.60
2022-08-02T17:37:42.553Z,0.90
2022-08-02T17:40:32.322Z,0.68
2022-08-02T17:43:14.798Z,0.60
2022-08-02T17:46:00.244Z,0.60
2022-08-02T17:48:58.150Z,0.77
2022-08-02T17:52:14.797Z,0.60
2022-08-02T17:54:34.266Z,0.75
2022-08-02T17:57:20.624Z,0.80
2022-08-02T18:00:03.906Z,0.85
2022-08-02T18:02:52.648Z,0.90
2022-08-02T18:05:39.933Z,0.80
2022-08-02T18:08:30.211Z,0.88
2022-08-02T18:11:09.158Z,0.70
2022-08-02T18:13:53.805Z,0.70
2022-08-02T18:16:29.310Z,0.93
2022-08-02T18:19:16.883Z,0.70
2022-08-02T18:22:00.713Z,0.60
2022-08-02T18:24:40.640Z,0.60
2022-08-02T18:27:24.119Z,0.68
2022-08-02T18:30:04.988Z,0.50
2022-08-02T18:33:58.636Z,0.70
2022-08-02T18:35:45.024Z,0.80
2022-08-02T18:38:20.918Z,0.90
2022-08-02T18:41:05.311Z,1.02
2022-08-02T18:43:53.585Z,0.85
2022-08-02T18:46:33.887Z,0.90
2022-08-02T18:49:14.707Z,0.70
2022-08-02T18:51:45.518Z,1.17
2022-08-02T18:54:26.614Z,0.98
2022-08-02T18:58:17.080Z,1.27
2022-08-02T19:00:20.649Z,1.00
2022-08-02T19:03:08.430Z,1.20
2022-08-02T19:05:52.169Z,1.30
2022-08-02T19:08:27.434Z,1.00
2022-08-02T19:11:20.271Z,1.15
2022-08-02T19:13:51.930Z,0.68
2022-08-02T19:16:37.002Z,1.40
2022-08-02T19:19:23.838Z,1.40
2022-08-02T19:22:18.090Z,1.30
2022-08-02T19:25:03.279Z,1.30
2022-08-02T19:27:47.511Z,1.02
2022-08-02T19:30:25.674Z,0.77
2022-08-02T19:32:59.750Z,1.33
2022-08-02T19:35:34.335Z,1.50
2022-08-02T19:38:34.516Z,1.58
2022-08-02T19:41:14.280Z,1.20
2022-08-02T19:44:26.945Z,1.67
2022-08-02T19:47:12.223Z,1.63
2022-08-02T19:49:45.191Z,1.52
2022-08-02T19:52:25.230Z,1.30
2022-08-02T19:56:00.122Z,1.35
2022-08-02T19:58:08.308Z,1.20
2022-08-02T20:00:42.753Z,1.30
2022-08-02T20:03:20.079Z,1.17
2022-08-02T20:06:30.225Z,1.02
2022-08-02T20:09:16.894Z,1.25
2022-08-02T20:11:55.407Z,1.50
2022-08-02T20:14:36.176Z,1.38
2022-08-02T20:17:14.270Z,1.50
2022-08-02T20:19:51.330Z,1.73
2022-08-02T20:22:23.536Z,0.98
2022-08-02T20:25:07.866Z,1.50
2022-08-02T20:27:48.798Z,1.52
2022-08-02T20:30:32.143Z,1.42
2022-08-02T20:33:21.941Z,1.40
2022-08-02T20:35:57.754Z,1.60
2022-08-02T20:38:41.141Z,1.55
2022-08-02T20:41:46.402Z,1.50
2022-08-02T20:44:37.336Z,1.60
2022-08-02T20:47:27.950Z,1.67
2022-08-02T20:50:32.960Z,1.83
2022-08-02T20:53:23.846Z,1.80
2022-08-02T20:55:59.286Z,2.13
2022-08-02T20:58:43.125Z,2.17
2022-08-02T21:01:25.275Z,1.77
2022-08-02T21:04:24.909Z,1.83
2022-08-02T21:07:17.955Z,2.25
2022-08-02T21:09:59.993Z,2.15
2022-08-02T21:12:45.367Z,2.60
2022-08-02T21:15:36.200Z,2.60
2022-08-02T21:18:33.183Z,2.25
2022-08-02T21:21:18.958Z,2.45
2022-08-02T21:24:04.129Z,2.42
2022-08-02T21:26:52.703Z,2.15
2022-08-02T21:29:33.917Z,2.55
2022-08-02T21:32:17.163Z,2.13
2022-08-02T21:34:57.057Z,2.22
2022-08-02T21:37:44.792Z,2.50
2022-08-02T21:40:21.400Z,2.53
2022-08-02T21:43:06.326Z,2.05
2022-08-02T21:45:53.865Z,2.35
2022-08-02T21:48:41.756Z,2.50
2022-08-02T21:51:19.787Z,2.25
2022-08-02T21:54:17.407Z,2.38
2022-08-02T21:57:04.720Z,2.10
2022-08-02T21:59:45.347Z,2.15
2022-08-02T22:02:31.076Z,2.70
2022-08-02T22:08:20.304Z,2.40
2022-08-02T22:11:17.235Z,2.75
2022-08-02T22:13:58.294Z,2.28
2022-08-02T22:16:39.163Z,2.85
2022-08-02T22:19:15.338Z,2.60
2022-08-02T22:21:55.573Z,2.45
2022-08-02T22:24:41.360Z,2.75
2022-08-02T22:27:20.297Z,2.42
2022-08-02T22:29:53.147Z,2.70
2022-08-02T22:32:46.805Z,3.30
2022-08-02T22:35:28.373Z,4.03
2022-08-02T22:38:14.979Z,4.63
2022-08-02T22:41:00.662Z,4.63
2022-08-02T22:43:57.479Z,5.38
2022-08-02T22:46:40.746Z,6.07
2022-08-02T22:49:36.947Z,5.78
2022-08-02T22:52:22.143Z,5.35
2022-08-02T22:55:06.577Z,5.57
2022-08-02T22:57:56.423Z,5.90
2022-08-02T22:59:04.041Z,2.40
2022-08-02T23:00:43.670Z,5.50
2022-08-02T23:03:20.101Z,5.80
2022-08-02T23:05:58.033Z,5.50
2022-08-02T23:08:51.439Z,4.07
2022-08-02T23:11:26.532Z,4.05
2022-08-02T23:13:55.653Z,4.10
2022-08-02T23:16:48.698Z,3.80
2022-08-02T23:19:34.555Z,3.38
2022-08-02T23:22:03.995Z,3.47
2022-08-02T23:24:39.106Z,3.45
2022-08-02T23:27:30.404Z,3.83
2022-08-02T23:30:12.030Z,3.92
2022-08-02T23:32:52.038Z,4.15
2022-08-02T23:35:38.189Z,3.92
2022-08-02T23:38:16.081Z,4.00
2022-08-02T23:40:51.611Z,4.07
2022-08-02T23:43:57.280Z,4.72
2022-08-02T23:46:44.604Z,4.20
2022-08-02T23:49:29.421Z,4.20
2022-08-02T23:52:04.191Z,4.40
2022-08-02T23:54:37.581Z,3.65
2022-08-02T23:57:20.510Z,4.60
